sensor_id;sensor_type;location;lat;lon;timestamp;pressure;altitude;pressure_sealevel;temperature;humidity
65394;BME280;52002;49.760;6.512;2022-07-23T00:01:40;99956.19;;;22.27;61.67
65394;BME280;52002;49.760;6.512;2022-07-23T00:04:06;99960.84;;;22.20;61.67
65394;BME280;52002;49.760;6.512;2022-07-23T00:06:32;99967.94;;;22.14;62.01
65394;BME280;52002;49.760;6.512;2022-07-23T00:08:58;99977.45;;;22.14;62.50
65394;BME280;52002;49.760;6.512;2022-07-23T00:11:24;99991.27;;;22.13;62.72
65394;BME280;52002;49.760;6.512;2022-07-23T00:13:50;99981.77;;;22.13;62.60
65394;BME280;52002;49.760;6.512;2022-07-23T00:16:16;99983.34;;;22.11;62.34
65394;BME280;52002;49.760;6.512;2022-07-23T00:18:42;99987.11;;;22.10;62.27
65394;BME280;52002;49.760;6.512;2022-07-23T00:21:08;100003.11;;;22.09;62.30
65394;BME280;52002;49.760;6.512;2022-07-23T00:23:33;100022.45;;;22.10;62.34
65394;BME280;52002;49.760;6.512;2022-07-23T00:25:59;100037.81;;;22.14;62.42
65394;BME280;52002;49.760;6.512;2022-07-23T00:28:25;100044.50;;;22.18;62.48
65394;BME280;52002;49.760;6.512;2022-07-23T00:30:51;100047.84;;;22.20;62.45
65394;BME280;52002;49.760;6.512;2022-07-23T00:33:17;100049.63;;;22.17;62.51
65394;BME280;52002;49.760;6.512;2022-07-23T00:35:43;100043.55;;;22.15;62.52
65394;BME280;52002;49.760;6.512;2022-07-23T00:38:10;100038.53;;;22.12;62.36
65394;BME280;52002;49.760;6.512;2022-07-23T00:40:37;100028.08;;;22.09;62.51
65394;BME280;52002;49.760;6.512;2022-07-23T00:43:04;100018.48;;;22.06;62.31
65394;BME280;52002;49.760;6.512;2022-07-23T00:45:30;100008.98;;;22.00;62.29
65394;BME280;52002;49.760;6.512;2022-07-23T00:47:57;100010.76;;;21.96;62.28
65394;BME280;52002;49.760;6.512;2022-07-23T00:50:23;100001.77;;;21.89;62.22
65394;BME280;52002;49.760;6.512;2022-07-23T00:52:49;100005.35;;;21.83;62.25
65394;BME280;52002;49.760;6.512;2022-07-23T00:55:14;100014.42;;;21.79;62.49
65394;BME280;52002;49.760;6.512;2022-07-23T00:57:41;100019.77;;;21.77;63.06
65394;BME280;52002;49.760;6.512;2022-07-23T01:00:10;100017.78;;;21.75;63.26
65394;BME280;52002;49.760;6.512;2022-07-23T01:02:38;100019.69;;;21.67;63.37
65394;BME280;52002;49.760;6.512;2022-07-23T01:05:05;100026.26;;;21.62;63.64
65394;BME280;52002;49.760;6.512;2022-07-23T01:07:32;100033.43;;;21.59;63.89
65394;BME280;52002;49.760;6.512;2022-07-23T01:09:59;100044.64;;;21.60;63.88
65394;BME280;52002;49.760;6.512;2022-07-23T01:12:25;100053.93;;;21.62;63.91
65394;BME280;52002;49.760;6.512;2022-07-23T01:14:56;100062.84;;;21.66;63.70
65394;BME280;52002;49.760;6.512;2022-07-23T01:17:23;100072.13;;;21.75;63.65
65394;BME280;52002;49.760;6.512;2022-07-23T01:19:49;100055.31;;;21.82;63.39
65394;BME280;52002;49.760;6.512;2022-07-23T01:22:18;100027.41;;;21.84;63.43
65394;BME280;52002;49.760;6.512;2022-07-23T01:24:45;100015.17;;;21.84;63.21
65394;BME280;52002;49.760;6.512;2022-07-23T01:27:11;99994.27;;;21.78;63.06
65394;BME280;52002;49.760;6.512;2022-07-23T01:29:38;99982.77;;;21.76;62.91
65394;BME280;52002;49.760;6.512;2022-07-23T01:32:05;99981.09;;;21.75;62.82
65394;BME280;52002;49.760;6.512;2022-07-23T01:34:32;99976.40;;;21.73;62.73
65394;BME280;52002;49.760;6.512;2022-07-23T01:36:58;99970.78;;;21.67;62.14
65394;BME280;52002;49.760;6.512;2022-07-23T01:39:23;99976.51;;;21.62;61.70
65394;BME280;52002;49.760;6.512;2022-07-23T01:41:49;99977.53;;;21.54;61.44
65394;BME280;52002;49.760;6.512;2022-07-23T01:44:15;99978.39;;;21.48;61.97
65394;BME280;52002;49.760;6.512;2022-07-23T01:46:41;99987.58;;;21.47;62.65
65394;BME280;52002;49.760;6.512;2022-07-23T01:49:08;99983.19;;;21.46;62.87
65394;BME280;52002;49.760;6.512;2022-07-23T01:51:34;99984.95;;;21.43;62.94
65394;BME280;52002;49.760;6.512;2022-07-23T01:54:00;99987.58;;;21.40;63.13
65394;BME280;52002;49.760;6.512;2022-07-23T01:56:26;99989.86;;;21.36;63.35
65394;BME280;52002;49.760;6.512;2022-07-23T01:58:51;99997.09;;;21.33;63.55
65394;BME280;52002;49.760;6.512;2022-07-23T02:01:17;99995.41;;;21.32;63.63
65394;BME280;52002;49.760;6.512;2022-07-23T02:03:43;100000.52;;;21.31;63.66
65394;BME280;52002;49.760;6.512;2022-07-23T02:06:09;99997.68;;;21.29;63.83
65394;BME280;52002;49.760;6.512;2022-07-23T02:08:35;99999.04;;;21.29;63.88
65394;BME280;52002;49.760;6.512;2022-07-23T02:11:01;99984.83;;;21.27;63.92
65394;BME280;52002;49.760;6.512;2022-07-23T02:13:26;99982.34;;;21.25;63.89
65394;BME280;52002;49.760;6.512;2022-07-23T02:15:54;99978.99;;;21.23;63.83
65394;BME280;52002;49.760;6.512;2022-07-23T02:18:20;99970.84;;;21.23;63.56
65394;BME280;52002;49.760;6.512;2022-07-23T02:20:46;99960.72;;;21.21;63.40
65394;BME280;52002;49.760;6.512;2022-07-23T02:23:12;99963.97;;;21.20;63.38
65394;BME280;52002;49.760;6.512;2022-07-23T02:25:38;99970.34;;;21.17;63.50
65394;BME280;52002;49.760;6.512;2022-07-23T02:28:04;99966.68;;;21.14;63.63
65394;BME280;52002;49.760;6.512;2022-07-23T02:30:30;99963.11;;;21.06;63.84
65394;BME280;52002;49.760;6.512;2022-07-23T02:32:56;99964.55;;;21.02;64.01
65394;BME280;52002;49.760;6.512;2022-07-23T02:35:22;99971.34;;;21.02;64.24
65394;BME280;52002;49.760;6.512;2022-07-23T02:37:48;99966.95;;;21.01;64.41
65394;BME280;52002;49.760;6.512;2022-07-23T02:40:14;99974.81;;;21.00;64.49
65394;BME280;52002;49.760;6.512;2022-07-23T02:42:40;99986.07;;;20.97;64.53
65394;BME280;52002;49.760;6.512;2022-07-23T02:45:06;99990.45;;;20.91;64.58
65394;BME280;52002;49.760;6.512;2022-07-23T02:47:33;99991.44;;;20.84;64.61
65394;BME280;52002;49.760;6.512;2022-07-23T02:49:58;99984.86;;;20.75;64.75
65394;BME280;52002;49.760;6.512;2022-07-23T02:52:24;99987.71;;;20.67;64.88
65394;BME280;52002;49.760;6.512;2022-07-23T02:54:50;99993.65;;;20.60;64.90
65394;BME280;52002;49.760;6.512;2022-07-23T02:57:16;99984.88;;;20.58;64.75
65394;BME280;52002;49.760;6.512;2022-07-23T02:59:42;99982.56;;;20.55;64.70
65394;BME280;52002;49.760;6.512;2022-07-23T03:02:08;99980.16;;;20.49;64.86
65394;BME280;52002;49.760;6.512;2022-07-23T03:04:34;99983.80;;;20.45;64.99
65394;BME280;52002;49.760;6.512;2022-07-23T03:06:59;99984.09;;;20.40;65.05
65394;BME280;52002;49.760;6.512;2022-07-23T03:09:25;99992.30;;;20.36;65.15
65394;BME280;52002;49.760;6.512;2022-07-23T03:11:51;99987.49;;;20.31;65.20
65394;BME280;52002;49.760;6.512;2022-07-23T03:14:17;99996.52;;;20.27;65.48
65394;BME280;52002;49.760;6.512;2022-07-23T03:16:43;99999.77;;;20.27;65.51
65394;BME280;52002;49.760;6.512;2022-07-23T03:19:09;99997.13;;;20.23;65.27
65394;BME280;52002;49.760;6.512;2022-07-23T03:21:35;99993.75;;;20.14;65.20
65394;BME280;52002;49.760;6.512;2022-07-23T03:24:03;100002.80;;;20.10;65.33
65394;BME280;52002;49.760;6.512;2022-07-23T03:26:29;100009.66;;;20.06;65.43
65394;BME280;52002;49.760;6.512;2022-07-23T03:28:55;99999.73;;;20.03;65.54
65394;BME280;52002;49.760;6.512;2022-07-23T03:31:21;100009.30;;;19.98;65.57
65394;BME280;52002;49.760;6.512;2022-07-23T03:33:47;100007.58;;;19.91;65.68
65394;BME280;52002;49.760;6.512;2022-07-23T03:36:13;100009.50;;;19.86;65.73
65394;BME280;52002;49.760;6.512;2022-07-23T03:38:39;100009.68;;;19.84;65.66
65394;BME280;52002;49.760;6.512;2022-07-23T03:41:04;100007.68;;;19.82;65.69
65394;BME280;52002;49.760;6.512;2022-07-23T03:43:30;100008.17;;;19.75;65.74
65394;BME280;52002;49.760;6.512;2022-07-23T03:45:56;100009.80;;;19.69;65.90
65394;BME280;52002;49.760;6.512;2022-07-23T03:48:22;100006.30;;;19.65;66.04
65394;BME280;52002;49.760;6.512;2022-07-23T03:50:48;100007.05;;;19.63;66.07
65394;BME280;52002;49.760;6.512;2022-07-23T03:53:13;100012.84;;;19.60;66.12
65394;BME280;52002;49.760;6.512;2022-07-23T03:55:39;100022.38;;;19.55;66.14
65394;BME280;52002;49.760;6.512;2022-07-23T03:58:05;100026.51;;;19.51;66.35
65394;BME280;52002;49.760;6.512;2022-07-23T04:00:31;100026.56;;;19.47;66.53
65394;BME280;52002;49.760;6.512;2022-07-23T04:02:57;100024.18;;;19.48;66.52
65394;BME280;52002;49.760;6.512;2022-07-23T04:05:23;100021.48;;;19.48;66.43
65394;BME280;52002;49.760;6.512;2022-07-23T04:07:49;100025.62;;;19.44;66.31
65394;BME280;52002;49.760;6.512;2022-07-23T04:10:15;100032.40;;;19.44;66.19
65394;BME280;52002;49.760;6.512;2022-07-23T04:12:40;100041.02;;;19.44;66.10
65394;BME280;52002;49.760;6.512;2022-07-23T04:15:07;100040.84;;;19.45;66.11
65394;BME280;52002;49.760;6.512;2022-07-23T04:17:34;100032.07;;;19.43;66.21
65394;BME280;52002;49.760;6.512;2022-07-23T04:20:01;100040.52;;;19.44;66.18
65394;BME280;52002;49.760;6.512;2022-07-23T04:22:27;100035.16;;;19.40;66.13
65394;BME280;52002;49.760;6.512;2022-07-23T04:24:53;100040.78;;;19.38;66.21
65394;BME280;52002;49.760;6.512;2022-07-23T04:27:19;100049.94;;;19.37;66.34
65394;BME280;52002;49.760;6.512;2022-07-23T04:29:45;100048.58;;;19.37;66.48
65394;BME280;52002;49.760;6.512;2022-07-23T04:32:10;100051.98;;;19.35;66.40
65394;BME280;52002;49.760;6.512;2022-07-23T04:34:36;100054.22;;;19.32;66.58
65394;BME280;52002;49.760;6.512;2022-07-23T04:37:02;100056.61;;;19.31;66.62
65394;BME280;52002;49.760;6.512;2022-07-23T04:39:28;100051.19;;;19.31;66.53
65394;BME280;52002;49.760;6.512;2022-07-23T04:41:54;100054.96;;;19.30;66.50
65394;BME280;52002;49.760;6.512;2022-07-23T04:44:20;100055.34;;;19.26;66.58
65394;BME280;52002;49.760;6.512;2022-07-23T04:46:46;100058.38;;;19.28;66.57
65394;BME280;52002;49.760;6.512;2022-07-23T04:49:12;100057.96;;;19.31;66.48
65394;BME280;52002;49.760;6.512;2022-07-23T04:51:37;100065.20;;;19.34;66.38
65394;BME280;52002;49.760;6.512;2022-07-23T04:54:03;100066.34;;;19.36;66.27
65394;BME280;52002;49.760;6.512;2022-07-23T04:56:29;100065.64;;;19.38;66.23
65394;BME280;52002;49.760;6.512;2022-07-23T04:58:55;100056.17;;;19.38;66.32
65394;BME280;52002;49.760;6.512;2022-07-23T05:01:21;100063.91;;;19.41;66.36
65394;BME280;52002;49.760;6.512;2022-07-23T05:03:47;100075.89;;;19.43;66.32
65394;BME280;52002;49.760;6.512;2022-07-23T05:06:14;100073.24;;;19.49;66.29
65394;BME280;52002;49.760;6.512;2022-07-23T05:08:40;100075.89;;;19.53;66.02
65394;BME280;52002;49.760;6.512;2022-07-23T05:11:06;100081.25;;;19.58;66.04
65394;BME280;52002;49.760;6.512;2022-07-23T05:13:32;100078.98;;;19.61;66.02
65394;BME280;52002;49.760;6.512;2022-07-23T05:15:58;100080.77;;;19.65;66.00
65394;BME280;52002;49.760;6.512;2022-07-23T05:18:24;100086.66;;;19.68;66.02
65394;BME280;52002;49.760;6.512;2022-07-23T05:20:49;100078.53;;;19.68;66.05
65394;BME280;52002;49.760;6.512;2022-07-23T05:23:15;100083.74;;;19.70;66.04
65394;BME280;52002;49.760;6.512;2022-07-23T05:25:41;100085.69;;;19.76;65.95
65394;BME280;52002;49.760;6.512;2022-07-23T05:28:07;100077.41;;;19.84;65.70
65394;BME280;52002;49.760;6.512;2022-07-23T05:30:33;100067.42;;;19.85;65.61
65394;BME280;52002;49.760;6.512;2022-07-23T05:32:59;100074.34;;;19.88;65.53
65394;BME280;52002;49.760;6.512;2022-07-23T05:35:25;100075.95;;;19.93;65.46
65394;BME280;52002;49.760;6.512;2022-07-23T05:37:51;100081.92;;;19.99;65.37
65394;BME280;52002;49.760;6.512;2022-07-23T05:40:18;100078.05;;;20.08;65.29
65394;BME280;52002;49.760;6.512;2022-07-23T05:42:44;100084.03;;;20.14;65.22
65394;BME280;52002;49.760;6.512;2022-07-23T05:45:10;100087.68;;;20.17;65.19
65394;BME280;52002;49.760;6.512;2022-07-23T05:47:49;100096.78;;;20.21;65.01
65394;BME280;52002;49.760;6.512;2022-07-23T05:50:16;100098.70;;;20.27;64.83
65394;BME280;52002;49.760;6.512;2022-07-23T05:52:43;100097.11;;;20.39;64.60
65394;BME280;52002;49.760;6.512;2022-07-23T05:55:10;100100.00;;;20.49;64.28
65394;BME280;52002;49.760;6.512;2022-07-23T05:57:36;100100.85;;;20.56;64.15
65394;BME280;52002;49.760;6.512;2022-07-23T06:00:04;100102.48;;;20.68;64.01
65394;BME280;52002;49.760;6.512;2022-07-23T06:02:32;100107.26;;;20.76;63.73
65394;BME280;52002;49.760;6.512;2022-07-23T06:04:57;100108.03;;;20.88;63.53
65394;BME280;52002;49.760;6.512;2022-07-23T06:07:24;100111.41;;;20.97;63.23
65394;BME280;52002;49.760;6.512;2022-07-23T06:09:49;100119.68;;;20.99;62.74
65394;BME280;52002;49.760;6.512;2022-07-23T06:12:16;100123.86;;;21.02;62.62
65394;BME280;52002;49.760;6.512;2022-07-23T06:14:42;100125.51;;;20.96;62.32
65394;BME280;52002;49.760;6.512;2022-07-23T06:17:08;100125.59;;;20.92;62.14
65394;BME280;52002;49.760;6.512;2022-07-23T06:19:35;100122.31;;;20.86;62.25
65394;BME280;52002;49.760;6.512;2022-07-23T06:22:00;100121.46;;;20.79;62.25
65394;BME280;52002;49.760;6.512;2022-07-23T06:24:26;100123.90;;;20.73;62.39
65394;BME280;52002;49.760;6.512;2022-07-23T06:26:52;100122.86;;;20.74;62.44
65394;BME280;52002;49.760;6.512;2022-07-23T06:29:18;100124.38;;;20.84;62.49
65394;BME280;52002;49.760;6.512;2022-07-23T06:31:43;100134.17;;;21.02;62.39
65394;BME280;52002;49.760;6.512;2022-07-23T06:34:09;100128.71;;;21.20;61.97
65394;BME280;52002;49.760;6.512;2022-07-23T06:36:35;100132.53;;;21.32;61.54
65394;BME280;52002;49.760;6.512;2022-07-23T06:39:01;100133.59;;;21.45;61.04
65394;BME280;52002;49.760;6.512;2022-07-23T06:41:27;100137.38;;;21.57;60.66
65394;BME280;52002;49.760;6.512;2022-07-23T06:43:53;100124.78;;;21.67;60.12
65394;BME280;52002;49.760;6.512;2022-07-23T06:46:19;100125.83;;;21.79;60.00
65394;BME280;52002;49.760;6.512;2022-07-23T06:48:46;100134.11;;;21.95;59.65
65394;BME280;52002;49.760;6.512;2022-07-23T06:51:12;100129.52;;;22.16;59.40
65394;BME280;52002;49.760;6.512;2022-07-23T06:53:38;100132.91;;;22.41;58.40
65394;BME280;52002;49.760;6.512;2022-07-23T06:56:04;100137.32;;;22.62;58.01
65394;BME280;52002;49.760;6.512;2022-07-23T06:58:30;100133.91;;;22.80;57.64
65394;BME280;52002;49.760;6.512;2022-07-23T07:00:55;100136.69;;;22.96;57.29
65394;BME280;52002;49.760;6.512;2022-07-23T07:03:22;100132.97;;;23.07;56.76
65394;BME280;52002;49.760;6.512;2022-07-23T07:05:48;100133.28;;;23.08;56.43
65394;BME280;52002;49.760;6.512;2022-07-23T07:08:15;100140.83;;;23.06;56.24
65394;BME280;52002;49.760;6.512;2022-07-23T07:10:41;100142.73;;;23.05;56.12
65394;BME280;52002;49.760;6.512;2022-07-23T07:13:07;100142.42;;;23.04;56.06
65394;BME280;52002;49.760;6.512;2022-07-23T07:15:33;100146.05;;;23.07;55.92
65394;BME280;52002;49.760;6.512;2022-07-23T07:18:01;100144.26;;;23.10;55.72
65394;BME280;52002;49.760;6.512;2022-07-23T07:20:27;100148.03;;;23.09;55.38
65394;BME280;52002;49.760;6.512;2022-07-23T07:22:53;100149.59;;;23.14;55.36
65394;BME280;52002;49.760;6.512;2022-07-23T07:25:19;100152.58;;;23.29;55.21
65394;BME280;52002;49.760;6.512;2022-07-23T07:27:45;100156.91;;;23.43;54.72
65394;BME280;52002;49.760;6.512;2022-07-23T07:30:11;100155.92;;;23.54;54.48
65394;BME280;52002;49.760;6.512;2022-07-23T07:32:38;100160.70;;;23.58;54.24
65394;BME280;52002;49.760;6.512;2022-07-23T07:35:05;100156.08;;;23.59;54.06
65394;BME280;52002;49.760;6.512;2022-07-23T07:37:32;100160.04;;;23.63;53.92
65394;BME280;52002;49.760;6.512;2022-07-23T07:39:57;100164.19;;;23.72;54.10
65394;BME280;52002;49.760;6.512;2022-07-23T07:42:23;100167.48;;;23.81;53.99
65394;BME280;52002;49.760;6.512;2022-07-23T07:44:49;100156.09;;;23.91;53.93
65394;BME280;52002;49.760;6.512;2022-07-23T07:47:15;100153.70;;;23.85;53.58
65394;BME280;52002;49.760;6.512;2022-07-23T07:49:44;100162.55;;;23.80;53.42
65394;BME280;52002;49.760;6.512;2022-07-23T07:52:10;100155.42;;;23.79;53.42
65394;BME280;52002;49.760;6.512;2022-07-23T07:54:36;100161.92;;;23.78;52.58
65394;BME280;52002;49.760;6.512;2022-07-23T07:57:02;100167.34;;;23.69;52.36
65394;BME280;52002;49.760;6.512;2022-07-23T07:59:28;100168.48;;;23.71;51.91
65394;BME280;52002;49.760;6.512;2022-07-23T08:01:54;100179.48;;;23.73;51.56
65394;BME280;52002;49.760;6.512;2022-07-23T08:04:21;100176.14;;;23.71;51.30
65394;BME280;52002;49.760;6.512;2022-07-23T08:06:47;100175.68;;;23.74;51.46
65394;BME280;52002;49.760;6.512;2022-07-23T08:09:12;100174.81;;;23.80;51.04
65394;BME280;52002;49.760;6.512;2022-07-23T08:11:39;100179.78;;;23.90;50.71
65394;BME280;52002;49.760;6.512;2022-07-23T08:14:04;100169.03;;;24.02;50.66
65394;BME280;52002;49.760;6.512;2022-07-23T08:16:31;100169.97;;;24.15;50.62
65394;BME280;52002;49.760;6.512;2022-07-23T08:18:57;100172.27;;;24.27;50.50
65394;BME280;52002;49.760;6.512;2022-07-23T08:21:22;100170.41;;;24.37;50.12
65394;BME280;52002;49.760;6.512;2022-07-23T08:23:48;100168.02;;;24.47;49.56
65394;BME280;52002;49.760;6.512;2022-07-23T08:26:14;100166.89;;;24.55;49.16
65394;BME280;52002;49.760;6.512;2022-07-23T08:28:40;100171.73;;;24.62;48.93
65394;BME280;52002;49.760;6.512;2022-07-23T08:31:06;100162.34;;;24.67;48.61
65394;BME280;52002;49.760;6.512;2022-07-23T08:33:32;100169.36;;;24.73;48.34
65394;BME280;52002;49.760;6.512;2022-07-23T08:35:58;100163.73;;;24.77;48.13
65394;BME280;52002;49.760;6.512;2022-07-23T08:38:24;100165.19;;;24.79;47.70
65394;BME280;52002;49.760;6.512;2022-07-23T08:40:53;100161.91;;;24.80;47.66
65394;BME280;52002;49.760;6.512;2022-07-23T08:43:25;100164.03;;;24.78;47.54
65394;BME280;52002;49.760;6.512;2022-07-23T08:45:54;100166.86;;;24.80;47.33
65394;BME280;52002;49.760;6.512;2022-07-23T08:48:29;100166.98;;;24.85;47.23
65394;BME280;52002;49.760;6.512;2022-07-23T08:50:59;100174.83;;;24.91;47.44
65394;BME280;52002;49.760;6.512;2022-07-23T08:53:27;100170.11;;;24.98;47.65
65394;BME280;52002;49.760;6.512;2022-07-23T08:55:56;100171.63;;;25.04;47.45
65394;BME280;52002;49.760;6.512;2022-07-23T08:58:25;100172.36;;;25.11;46.86
65394;BME280;52002;49.760;6.512;2022-07-23T09:00:51;100176.31;;;25.15;46.04
65394;BME280;52002;49.760;6.512;2022-07-23T09:03:24;100168.79;;;25.20;46.00
65394;BME280;52002;49.760;6.512;2022-07-23T09:05:54;100174.31;;;25.31;45.83
65394;BME280;52002;49.760;6.512;2022-07-23T09:08:23;100177.14;;;25.43;45.80
65394;BME280;52002;49.760;6.512;2022-07-23T09:10:54;100174.00;;;25.58;45.37
65394;BME280;52002;49.760;6.512;2022-07-23T09:13:30;100175.27;;;25.65;45.04
65394;BME280;52002;49.760;6.512;2022-07-23T09:16:07;100172.69;;;25.82;44.80
65394;BME280;52002;49.760;6.512;2022-07-23T09:18:47;100168.41;;;25.96;44.61
65394;BME280;52002;49.760;6.512;2022-07-23T09:21:20;100174.22;;;25.99;44.49
65394;BME280;52002;49.760;6.512;2022-07-23T09:23:56;100181.61;;;26.11;44.09
65394;BME280;52002;49.760;6.512;2022-07-23T09:26:37;100182.79;;;26.12;43.41
65394;BME280;52002;49.760;6.512;2022-07-23T09:29:22;100178.47;;;26.04;43.18
65394;BME280;52002;49.760;6.512;2022-07-23T09:31:56;100181.20;;;26.04;43.15
65394;BME280;52002;49.760;6.512;2022-07-23T09:34:32;100182.18;;;26.01;42.80
65394;BME280;52002;49.760;6.512;2022-07-23T09:37:15;100185.36;;;26.07;42.83
65394;BME280;52002;49.760;6.512;2022-07-23T09:39:43;100191.09;;;26.17;42.41
65394;BME280;52002;49.760;6.512;2022-07-23T09:42:25;100192.77;;;26.18;42.12
65394;BME280;52002;49.760;6.512;2022-07-23T09:44:51;100183.76;;;26.30;42.32
65394;BME280;52002;49.760;6.512;2022-07-23T09:47:20;100180.52;;;26.33;41.58
65394;BME280;52002;49.760;6.512;2022-07-23T09:50:05;100185.19;;;26.44;41.75
65394;BME280;52002;49.760;6.512;2022-07-23T09:52:48;100187.68;;;26.58;41.62
65394;BME280;52002;49.760;6.512;2022-07-23T09:55:16;100182.42;;;26.68;41.56
65394;BME280;52002;49.760;6.512;2022-07-23T09:57:45;100179.33;;;26.76;41.09
65394;BME280;52002;49.760;6.512;2022-07-23T10:00:13;100184.55;;;26.78;40.95
65394;BME280;52002;49.760;6.512;2022-07-23T10:02:40;100182.78;;;26.84;40.76
65394;BME280;52002;49.760;6.512;2022-07-23T10:05:08;100179.27;;;26.86;40.63
65394;BME280;52002;49.760;6.512;2022-07-23T10:07:37;100179.91;;;26.90;40.54
65394;BME280;52002;49.760;6.512;2022-07-23T10:10:04;100175.24;;;26.88;40.47
65394;BME280;52002;49.760;6.512;2022-07-23T10:12:31;100173.78;;;26.98;40.38
65394;BME280;52002;49.760;6.512;2022-07-23T10:15:06;100181.86;;;27.04;40.09
65394;BME280;52002;49.760;6.512;2022-07-23T10:17:34;100183.64;;;27.10;40.11
65394;BME280;52002;49.760;6.512;2022-07-23T10:20:01;100177.72;;;27.16;39.72
65394;BME280;52002;49.760;6.512;2022-07-23T10:22:32;100180.50;;;27.19;39.87
65394;BME280;52002;49.760;6.512;2022-07-23T10:28:15;100186.06;;;27.36;39.67
65394;BME280;52002;49.760;6.512;2022-07-23T10:36:44;100182.27;;;27.51;39.20
65394;BME280;52002;49.760;6.512;2022-07-23T10:39:29;100174.10;;;27.42;39.37
65394;BME280;52002;49.760;6.512;2022-07-23T10:42:16;100172.06;;;27.35;39.25
65394;BME280;52002;49.760;6.512;2022-07-23T10:44:47;100169.66;;;27.38;39.04
65394;BME280;52002;49.760;6.512;2022-07-23T10:47:27;100163.69;;;27.41;38.93
65394;BME280;52002;49.760;6.512;2022-07-23T10:50:16;100176.60;;;27.55;38.75
65394;BME280;52002;49.760;6.512;2022-07-23T10:55:48;100178.39;;;27.79;38.43
65394;BME280;52002;49.760;6.512;2022-07-23T10:58:22;100176.91;;;28.05;38.12
65394;BME280;52002;49.760;6.512;2022-07-23T11:00:51;100179.37;;;28.21;37.67
65394;BME280;52002;49.760;6.512;2022-07-23T11:03:34;100176.37;;;28.40;36.95
65394;BME280;52002;49.760;6.512;2022-07-23T11:06:03;100165.67;;;28.58;36.78
65394;BME280;52002;49.760;6.512;2022-07-23T11:08:30;100173.45;;;28.83;36.44
65394;BME280;52002;49.760;6.512;2022-07-23T11:13:35;100169.82;;;29.00;36.05
65394;BME280;52002;49.760;6.512;2022-07-23T11:24:09;100165.88;;;29.15;35.58
65394;BME280;52002;49.760;6.512;2022-07-23T11:26:52;100165.91;;;29.18;35.41
65394;BME280;52002;49.760;6.512;2022-07-23T11:34:42;100159.73;;;29.08;35.06
65394;BME280;52002;49.760;6.512;2022-07-23T11:37:27;100162.77;;;29.09;35.08
65394;BME280;52002;49.760;6.512;2022-07-23T11:39:59;100164.58;;;29.20;34.96
65394;BME280;52002;49.760;6.512;2022-07-23T11:42:25;100156.81;;;29.37;34.96
65394;BME280;52002;49.760;6.512;2022-07-23T11:44:51;100155.83;;;29.48;34.66
65394;BME280;52002;49.760;6.512;2022-07-23T11:47:22;100155.88;;;29.53;34.32
65394;BME280;52002;49.760;6.512;2022-07-23T11:49:58;100153.64;;;29.50;34.00
65394;BME280;52002;49.760;6.512;2022-07-23T11:52:27;100156.97;;;29.52;33.63
65394;BME280;52002;49.760;6.512;2022-07-23T11:54:56;100150.75;;;29.65;33.63
65394;BME280;52002;49.760;6.512;2022-07-23T11:57:28;100146.77;;;29.80;33.62
65394;BME280;52002;49.760;6.512;2022-07-23T12:00:07;100152.19;;;29.97;33.62
65394;BME280;52002;49.760;6.512;2022-07-23T12:02:36;100151.91;;;29.99;33.17
65394;BME280;52002;49.760;6.512;2022-07-23T12:05:04;100150.16;;;29.93;33.10
65394;BME280;52002;49.760;6.512;2022-07-23T12:10:17;100142.66;;;30.13;32.96
65394;BME280;52002;49.760;6.512;2022-07-23T12:12:50;100144.67;;;30.28;33.00
65394;BME280;52002;49.760;6.512;2022-07-23T12:15:20;100145.62;;;30.47;32.64
65394;BME280;52002;49.760;6.512;2022-07-23T12:17:48;100144.60;;;30.58;32.37
65394;BME280;52002;49.760;6.512;2022-07-23T12:20:19;100143.27;;;30.61;32.24
65394;BME280;52002;49.760;6.512;2022-07-23T12:22:49;100143.58;;;30.69;32.04
65394;BME280;52002;49.760;6.512;2022-07-23T12:25:19;100144.74;;;30.84;32.07
65394;BME280;52002;49.760;6.512;2022-07-23T12:28:07;100143.14;;;30.98;31.63
65394;BME280;52002;49.760;6.512;2022-07-23T12:35:57;100137.98;;;31.15;30.98
65394;BME280;52002;49.760;6.512;2022-07-23T12:38:26;100132.96;;;31.01;30.98
65394;BME280;52002;49.760;6.512;2022-07-23T12:40:56;100130.99;;;30.92;31.21
65394;BME280;52002;49.760;6.512;2022-07-23T12:43:31;100135.91;;;30.82;31.53
65394;BME280;52002;49.760;6.512;2022-07-23T12:46:16;100130.09;;;30.70;31.61
65394;BME280;52002;49.760;6.512;2022-07-23T12:51:21;100134.78;;;30.78;31.62
65394;BME280;52002;49.760;6.512;2022-07-23T12:53:51;100132.91;;;30.88;31.67
65394;BME280;52002;49.760;6.512;2022-07-23T12:56:27;100130.73;;;30.98;31.69
65394;BME280;52002;49.760;6.512;2022-07-23T13:01:40;100131.17;;;31.41;31.13
65394;BME280;52002;49.760;6.512;2022-07-23T13:06:49;100134.53;;;32.05;30.41
65394;BME280;52002;49.760;6.512;2022-07-23T13:09:28;100132.58;;;32.18;30.22
65394;BME280;52002;49.760;6.512;2022-07-23T13:11:56;100130.67;;;32.27;29.87
65394;BME280;52002;49.760;6.512;2022-07-23T13:14:23;100131.20;;;32.36;29.64
65394;BME280;52002;49.760;6.512;2022-07-23T13:16:51;100128.66;;;32.50;29.57
65394;BME280;52002;49.760;6.512;2022-07-23T13:19:19;100127.20;;;32.74;29.28
65394;BME280;52002;49.760;6.512;2022-07-23T13:21:47;100127.74;;;32.83;29.16
65394;BME280;52002;49.760;6.512;2022-07-23T13:24:13;100132.71;;;32.87;28.17
65394;BME280;52002;49.760;6.512;2022-07-23T13:26:39;100125.50;;;32.80;28.00
65394;BME280;52002;49.760;6.512;2022-07-23T13:29:06;100127.47;;;32.75;28.04
65394;BME280;52002;49.760;6.512;2022-07-23T13:31:32;100119.98;;;32.80;27.97
65394;BME280;52002;49.760;6.512;2022-07-23T13:33:58;100125.73;;;32.97;27.93
65394;BME280;52002;49.760;6.512;2022-07-23T13:36:24;100121.21;;;33.17;27.60
65394;BME280;52002;49.760;6.512;2022-07-23T13:38:50;100122.66;;;33.06;27.32
65394;BME280;52002;49.760;6.512;2022-07-23T13:41:19;100123.44;;;33.17;27.30